Terminal Aerodrome Forecast
Issued by NWS

Home | Current Version | Previous Version | Text Only | Print | Product List | Glossary On
Versions: 1 2 3 4 5 6 7 8 9 10 11 12 13 14 15 16 17 18 19
000
FTUS42 KFFC 281136
TAFPDK
TAF
KPDK 281136Z 2812/2912 21004KT 5SM BR BKN008
     FM281300 21004KT P6SM SCT015
     FM281600 17008KT P6SM SCT035
     FM290100 18006KT P6SM FEW250
     FM290900 17003KT P6SM SCT015=

USA.gov is the U.S. government's official web portal to all federal, state and local government web resources and services.